| time (UTC) | temp F | wind direction | speed MPH | gust MPH | rain 1hr in | rain 24hr in | rain mn in | humidity % | barometer mb |
| 20260902090005 | 69 | 302 | 5.0 | 9.0 | 0.00 | 0.00 | 0.00 | 61 | 1021.1 |
| 20260902085005 | 68 | 290 | 1.0 | 2.0 | 0.00 | 0.00 | 0.00 | 70 | 1021.0 |
| 20260902084504 | 66 | 246 | 1.0 | 2.0 | 0.00 | 0.00 | 0.00 | 75 | 1020.9 |
| 20260902084005 | 65 | 274 | 0.0 | 2.0 | 0.00 | 0.00 | 0.00 | 75 | 1020.8 |
| 20260902083504 | 64 | 273 | 0.0 | 1.0 | 0.00 | 0.00 | 0.00 | 77 | 1020.9 |
| 20260902083005 | 63 | 273 | 0.0 | 0.0 | 0.00 | 0.00 | 0.00 | 75 | 1021.1 |
| 20260902082505 | 62 | 273 | 0.0 | 1.0 | 0.00 | 0.00 | 0.00 | 75 | 1021.1 |
| 20260902082005 | 62 | 273 | 0.0 | 0.0 | 0.00 | 0.00 | 0.00 | 76 | 1021.1 |
| 20260902081505 | 62 | 273 | 0.0 | 1.0 | 0.00 | 0.00 | 0.00 | 78 | 1021.0 |
| 20260902081005 | 62 | 273 | 0.0 | 0.0 | 0.00 | 0.00 | 0.00 | 77 | 1020.9 |
| 20260902080504 | 61 | 273 | 0.0 | 0.0 | 0.00 | 0.00 | 0.00 | 77 | 1021.0 |
| 20260902080005 | 61 | 273 | 0.0 | 1.0 | 0.00 | 0.00 | 0.00 | 78 | 1020.9 |
| 20260902075005 | 60 | 273 | 0.0 | 0.0 | 0.00 | 0.00 | 0.00 | 79 | 1020.8 |
| 20260902074504 | 60 | 273 | 0.0 | 0.0 | 0.00 | 0.00 | 0.00 | 78 | 1020.8 |
| 20260902073504 | 60 | 273 | 0.0 | 0.0 | 0.00 | 0.00 | 0.00 | 80 | 1020.7 |
| 20260902073004 | 59 | 273 | 0.0 | 0.0 | 0.00 | 0.00 | 0.00 | 81 | 1020.5 |
| 20260902072505 | 59 | 273 | 0.0 | 1.0 | 0.00 | 0.00 | 0.00 | 80 | 1020.5 |
| 20260902072005 | 59 | 273 | 0.0 | 0.0 | 0.00 | 0.00 | 0.00 | 78 | 1020.5 |
| 20260902071505 | 59 | 273 | 0.0 | 2.0 | 0.00 | 0.00 | 0.00 | 79 | 1020.6 |
| 20260902070505 | 59 | 273 | 0.0 | 1.0 | 0.00 | 0.00 | 0.00 | 81 | 1020.5 |
| 20260902070006 | 58 | 273 | 0.0 | 0.0 | 0.00 | 0.00 | 0.00 | 82 | 1020.6 |
| 20260902064504 | 57 | 273 | 0.0 | 0.0 | 0.00 | 0.00 | 0.00 | 83 | 1020.6 |
| 20260902064005 | 56 | 273 | 0.0 | 0.0 | 0.00 | 0.00 | 0.00 | 81 | 1020.6 |
| 20260902063505 | 56 | 273 | 0.0 | 0.0 | 0.00 | 0.00 | 0.00 | 81 | 1020.5 |
| 20260902063005 | 56 | 273 | 0.0 | 0.0 | 0.00 | 0.00 | 0.00 | 81 | 1020.6 |
| 20260902062504 | 56 | 273 | 0.0 | 0.0 | 0.00 | 0.00 | 0.00 | 81 | 1020.6 |
| 20260902062004 | 56 | 273 | 0.0 | 0.0 | 0.00 | 0.00 | 0.00 | 82 | 1020.7 |
| 20260902061504 | 55 | 273 | 1.0 | 1.0 | 0.00 | 0.00 | 0.00 | 82 | 1020.7 |
| 20260902061005 | 55 | 275 | 0.0 | 0.0 | 0.00 | 0.00 | 0.00 | 85 | 1020.7 |
| 20260902060505 | 55 | 275 | 0.0 | 0.0 | 0.00 | 0.00 | 0.00 | 85 | 1020.7 |
| 20260902060004 | 54 | 275 | 0.0 | 0.0 | 0.00 | 0.00 | 0.00 | 84 | 1020.7 |
| 20260902055005 | 54 | 275 | 0.0 | 0.0 | 0.00 | 0.00 | 0.00 | 84 | 1020.7 |
| 20260902054505 | 54 | 275 | 0.0 | 0.0 | 0.00 | 0.00 | 0.00 | 83 | 1020.7 |
| 20260902054005 | 54 | 275 | 0.0 | 0.0 | 0.00 | 0.00 | 0.00 | 82 | 1020.6 |
| 20260902053505 | 54 | 275 | 0.0 | 0.0 | 0.00 | 0.00 | 0.00 | 82 | 1020.6 |
| 20260902053004 | 54 | 275 | 0.0 | 0.0 | 0.00 | 0.00 | 0.00 | 82 | 1020.5 |
| 20260902052505 | 54 | 275 | 0.0 | 0.0 | 0.00 | 0.00 | 0.00 | 84 | 1020.5 |
| 20260902051504 | 53 | 275 | 0.0 | 0.0 | 0.00 | 0.00 | 0.00 | 84 | 1020.4 |
| 20260902051005 | 53 | 275 | 0.0 | 0.0 | 0.00 | 0.00 | 0.00 | 84 | 1020.4 |
| 20260902050505 | 53 | 275 | 0.0 | 0.0 | 0.00 | 0.00 | 0.00 | 84 | 1020.3 |
| 20260902050007 | 53 | 275 | 0.0 | 0.0 | 0.00 | 0.00 | 0.00 | 83 | 1020.4 |
| 20260902045505 | 53 | 275 | 0.0 | 0.0 | 0.00 | 0.00 | 0.00 | 82 | 1020.6 |
| 20260902045005 | 53 | 275 | 0.0 | 0.0 | 0.00 | 0.00 | 0.00 | 82 | 1020.5 |
| 20260902044006 | 53 | 275 | 0.0 | 0.0 | 0.00 | 0.00 | 0.00 | 84 | 1020.4 |
| 20260902043504 | 52 | 275 | 0.0 | 0.0 | 0.00 | 0.00 | 0.00 | 84 | 1020.5 |
| 20260902043005 | 53 | 275 | 0.0 | 1.0 | 0.00 | 0.00 | 0.00 | 83 | 1020.4 |
| 20260902042504 | 53 | 275 | 0.0 | 0.0 | 0.00 | 0.00 | 0.00 | 82 | 1020.5 |
| 20260902042005 | 54 | 275 | 0.0 | 0.0 | 0.00 | 0.00 | 0.00 | 81 | 1020.5 |
| 20260902041505 | 54 | 275 | 0.0 | 1.0 | 0.00 | 0.00 | 0.00 | 83 | 1020.5 |
| 20260902041005 | 53 | 275 | 0.0 | 1.0 | 0.00 | 0.00 | 0.00 | 82 | 1020.6 |
| 20260902040505 | 53 | 275 | 0.0 | 0.0 | 0.00 | 0.00 | 0.00 | 80 | 1020.6 |
| 20260902040004 | 53 | 275 | 0.0 | 0.0 | 0.00 | 0.00 | 0.00 | 81 | 1020.5 |
| 20260902035505 | 53 | 275 | 0.0 | 0.0 | 0.00 | 0.00 | 0.00 | 82 | 1020.6 |
| 20260902034504 | 53 | 275 | 0.0 | 0.0 | 0.00 | 0.00 | 0.00 | 82 | 1020.6 |
| 20260902034005 | 53 | 275 | 1.0 | 1.0 | 0.00 | 0.00 | 0.00 | 81 | 1020.6 |
| 20260902033505 | 53 | 275 | 1.0 | 2.0 | 0.00 | 0.00 | 0.00 | 82 | 1020.6 |
| 20260902033005 | 53 | 275 | 0.0 | 0.0 | 0.00 | 0.00 | 0.00 | 82 | 1020.6 |
| 20260902032504 | 53 | 275 | 0.0 | 0.0 | 0.00 | 0.00 | 0.00 | 83 | 1020.5 |
| 20260902032004 | 53 | 275 | 0.0 | 1.0 | 0.00 | 0.00 | 0.00 | 82 | 1020.5 |
| 20260902031504 | 53 | 275 | 1.0 | 1.0 | 0.00 | 0.00 | 0.00 | 83 | 1020.6 |
| 20260902031005 | 53 | 275 | 1.0 | 2.0 | 0.00 | 0.00 | 0.00 | 83 | 1020.5 |
| 20260902030504 | 53 | 275 | 1.0 | 2.0 | 0.00 | 0.00 | 0.00 | 83 | 1020.6 |
| 20260902025504 | 53 | 275 | 2.0 | 3.0 | 0.00 | 0.00 | 0.00 | 84 | 1020.6 |
| 20260902025004 | 52 | 275 | 1.0 | 2.0 | 0.00 | 0.00 | 0.00 | 84 | 1020.6 |
| 20260902024505 | 53 | 275 | 0.0 | 3.0 | 0.00 | 0.00 | 0.00 | 83 | 1020.7 |
| 20260902024005 | 53 | 275 | 2.0 | 3.0 | 0.00 | 0.00 | 0.00 | 83 | 1020.7 |
| 20260902023505 | 53 | 275 | 1.0 | 2.0 | 0.00 | 0.00 | 0.00 | 84 | 1020.6 |
| 20260902023004 | 53 | 275 | 1.0 | 2.0 | 0.00 | 0.00 | 0.00 | 84 | 1020.7 |
| 20260902022504 | 53 | 275 | 0.0 | 2.0 | 0.00 | 0.00 | 0.00 | 84 | 1020.6 |
| 20260902022005 | 53 | 275 | 2.0 | 3.0 | 0.00 | 0.00 | 0.00 | 83 | 1020.7 |
| 20260902021505 | 53 | 275 | 2.0 | 2.0 | 0.00 | 0.01 | 0.00 | 83 | 1020.6 |
| 20260902021004 | 53 | 275 | 1.0 | 2.0 | 0.00 | 0.01 | 0.00 | 83 | 1020.6 |
| 20260902020504 | 53 | 275 | 2.0 | 2.0 | 0.00 | 0.01 | 0.00 | 83 | 1020.7 |
| 20260902020004 | 53 | 275 | 0.0 | 2.0 | 0.00 | 0.01 | 0.00 | 84 | 1020.6 |
| 20260902015504 | 53 | 275 | 1.0 | 2.0 | 0.00 | 0.01 | 0.00 | 84 | 1020.6 |
| 20260902014504 | 53 | 275 | 2.0 | 3.0 | 0.00 | 0.01 | 0.00 | 83 | 1020.6 |
| 20260902014005 | 53 | 275 | 0.0 | 1.0 | 0.00 | 0.01 | 0.00 | 84 | 1020.6 |
| 20260902013504 | 53 | 275 | 1.0 | 2.0 | 0.00 | 0.01 | 0.00 | 83 | 1020.7 |
| 20260902013005 | 54 | 275 | 1.0 | 2.0 | 0.00 | 0.01 | 0.00 | 82 | 1020.6 |
| 20260902012005 | 54 | 276 | 1.0 | 3.0 | 0.00 | 0.01 | 0.00 | 82 | 1020.5 |
| 20260902011504 | 54 | 276 | 3.0 | 3.0 | 0.00 | 0.01 | 0.00 | 83 | 1020.7 |
| 20260902011005 | 54 | 285 | 1.0 | 2.0 | 0.00 | 0.01 | 0.00 | 83 | 1020.7 |
| 20260902010005 | 54 | 286 | 0.0 | 2.0 | 0.00 | 0.01 | 0.00 | 83 | 1020.9 |
| 20260902005504 | 54 | 286 | 1.0 | 1.0 | 0.00 | 0.01 | 0.00 | 84 | 1020.9 |
| 20260902005004 | 54 | 286 | 0.0 | 1.0 | 0.00 | 0.01 | 0.00 | 84 | 1020.8 |
| 20260902003005 | 55 | 286 | 1.0 | 3.0 | 0.00 | 0.01 | 0.00 | 83 | 1020.9 |
| 20260902002504 | 54 | 286 | 2.0 | 3.0 | 0.00 | 0.01 | 0.00 | 84 | 1020.9 |
| 20260902001504 | 54 | 286 | 1.0 | 2.0 | 0.00 | 0.01 | 0.00 | 83 | 1021.0 |
| 20260902001005 | 55 | 286 | 2.0 | 3.0 | 0.00 | 0.01 | 0.00 | 83 | 1021.0 |
| 20260902000504 | 55 | 286 | 2.0 | 3.0 | 0.00 | 0.01 | 0.00 | 83 | 1021.1 |
| 20260902000005 | 55 | 288 | 1.0 | 2.0 | 0.00 | 0.01 | 0.00 | 84 | 1021.1 |
| 20260901235504 | 55 | 288 | 0.0 | 1.0 | 0.00 | 0.01 | 0.00 | 83 | 1021.2 |
| 20260901235005 | 55 | 288 | 1.0 | 2.0 | 0.00 | 0.01 | 0.00 | 83 | 1021.2 |
| 20260901234006 | 55 | 295 | 2.0 | 3.0 | 0.00 | 0.01 | 0.00 | 83 | 1021.2 |
| 20260901233505 | 55 | 296 | 1.0 | 2.0 | 0.00 | 0.01 | 0.00 | 83 | 1021.3 |
| 20260901233004 | 55 | 296 | 1.0 | 2.0 | 0.00 | 0.01 | 0.00 | 83 | 1021.4 |
| 20260901232004 | 55 | 296 | 2.0 | 2.0 | 0.00 | 0.01 | 0.00 | 83 | 1021.4 |
| 20260901231504 | 55 | 296 | 1.0 | 2.0 | 0.00 | 0.01 | 0.00 | 83 | 1021.5 |
| 20260901231004 | 55 | 297 | 1.0 | 2.0 | 0.00 | 0.01 | 0.00 | 83 | 1021.4 |
| 20260901230505 | 55 | 297 | 1.0 | 2.0 | 0.00 | 0.01 | 0.00 | 83 | 1021.4 |
| 20260901230004 | 55 | 296 | 1.0 | 2.0 | 0.00 | 0.01 | 0.00 | 83 | 1021.2 |
| 20260901225505 | 55 | 296 | 0.0 | 1.0 | 0.00 | 0.01 | 0.00 | 84 | 1021.2 |
| 20260901224504 | 56 | 297 | 1.0 | 2.0 | 0.00 | 0.01 | 0.00 | 83 | 1021.2 |
| 20260901224005 | 56 | 296 | 2.0 | 3.0 | 0.00 | 0.01 | 0.00 | 83 | 1021.1 |
| 20260901223504 | 56 | 297 | 2.0 | 2.0 | 0.00 | 0.01 | 0.00 | 83 | 1021.1 |
| 20260901223005 | 56 | 297 | 2.0 | 2.0 | 0.00 | 0.01 | 0.00 | 83 | 1021.2 |
| 20260901222006 | 56 | 298 | 2.0 | 2.0 | 0.00 | 0.01 | 0.00 | 82 | 1021.1 |
| 20260901221504 | 57 | 298 | 2.0 | 3.0 | 0.00 | 0.01 | 0.00 | 81 | 1021.1 |
| 20260901221004 | 57 | 298 | 2.0 | 3.0 | 0.00 | 0.01 | 0.00 | 81 | 1021.1 |
| 20260901220504 | 56 | 299 | 2.0 | 3.0 | 0.00 | 0.01 | 0.00 | 82 | 1021.1 |
| 20260901220004 | 57 | 319 | 1.0 | 2.0 | 0.00 | 0.01 | 0.00 | 81 | 1021.2 |
| 20260901215504 | 57 | 273 | 3.0 | 3.0 | 0.00 | 0.01 | 0.01 | 82 | 1021.2 |
| 20260901215005 | 57 | 279 | 2.0 | 3.0 | 0.00 | 0.01 | 0.01 | 82 | 1021.1 |
| 20260901214504 | 57 | 279 | 2.0 | 3.0 | 0.00 | 0.01 | 0.01 | 81 | 1021.1 |
| 20260901213504 | 58 | 281 | 2.0 | 3.0 | 0.00 | 0.01 | 0.01 | 80 | 1021.0 |
| 20260901213004 | 58 | 280 | 2.0 | 3.0 | 0.00 | 0.01 | 0.01 | 81 | 1021.0 |
| 20260901212504 | 58 | 280 | 2.0 | 3.0 | 0.00 | 0.01 | 0.01 | 81 | 1021.0 |
| 20260901212005 | 58 | 281 | 2.0 | 3.0 | 0.00 | 0.01 | 0.01 | 81 | 1021.0 |
| 20260901211504 | 57 | 282 | 2.0 | 3.0 | 0.00 | 0.01 | 0.01 | 82 | 1021.0 |
| 20260901211005 | 57 | 285 | 2.0 | 3.0 | 0.00 | 0.01 | 0.01 | 82 | 1021.2 |
| 20260901210504 | 57 | 286 | 2.0 | 3.0 | 0.00 | 0.01 | 0.01 | 82 | 1021.2 |
| 20260901210004 | 57 | 290 | 3.0 | 3.0 | 0.00 | 0.01 | 0.01 | 82 | 1021.3 |
| 20260901205504 | 58 | 291 | 3.0 | 3.0 | 0.00 | 0.01 | 0.01 | 82 | 1021.3 |
| 20260901205004 | 58 | 288 | 3.0 | 3.0 | 0.00 | 0.01 | 0.01 | 82 | 1021.3 |
| 20260901204005 | 58 | 278 | 3.0 | 3.0 | 0.00 | 0.01 | 0.01 | 81 | 1021.2 |
| 20260901203505 | 58 | 278 | 2.0 | 3.0 | 0.00 | 0.01 | 0.01 | 81 | 1021.3 |
| 20260901203004 | 58 | 278 | 3.0 | 3.0 | 0.00 | 0.01 | 0.01 | 81 | 1021.2 |
| 20260901202504 | 58 | 272 | 2.0 | 3.0 | 0.00 | 0.01 | 0.01 | 81 | 1021.2 |
| 20260901202004 | 58 | 272 | 2.0 | 3.0 | 0.00 | 0.01 | 0.01 | 81 | 1021.1 |
| 20260901201004 | 58 | 272 | 2.0 | 3.0 | 0.00 | 0.01 | 0.01 | 80 | 1021.1 |
| 20260901200004 | 58 | 271 | 2.0 | 3.0 | 0.00 | 0.01 | 0.01 | 80 | 1021.1 |
| 20260901195504 | 58 | 271 | 2.0 | 3.0 | 0.00 | 0.01 | 0.01 | 80 | 1021.0 |
| 20260901195005 | 58 | 271 | 2.0 | 3.0 | 0.00 | 0.01 | 0.01 | 81 | 1021.0 |
| 20260901194504 | 59 | 271 | 2.0 | 3.0 | 0.00 | 0.01 | 0.01 | 80 | 1021.0 |
| 20260901194005 | 59 | 271 | 2.0 | 3.0 | 0.00 | 0.01 | 0.01 | 80 | 1021.0 |
| 20260901193504 | 59 | 271 | 2.0 | 3.0 | 0.00 | 0.01 | 0.01 | 80 | 1021.0 |
| 20260901193004 | 59 | 271 | 2.0 | 2.0 | 0.00 | 0.01 | 0.01 | 79 | 1020.9 |
| 20260901192505 | 60 | 271 | 2.0 | 2.0 | 0.00 | 0.01 | 0.01 | 78 | 1020.8 |
| 20260901192004 | 60 | 271 | 2.0 | 3.0 | 0.00 | 0.01 | 0.01 | 77 | 1020.7 |
| 20260901191504 | 60 | 271 | 2.0 | 3.0 | 0.00 | 0.01 | 0.01 | 78 | 1020.7 |
| 20260901191004 | 60 | 271 | 2.0 | 3.0 | 0.00 | 0.01 | 0.01 | 77 | 1020.6 |
| 20260901190504 | 60 | 271 | 2.0 | 3.0 | 0.00 | 0.02 | 0.01 | 77 | 1020.6 |
| 20260901190004 | 60 | 271 | 2.0 | 2.0 | 0.00 | 0.06 | 0.01 | 77 | 1020.6 |
| 20260901185504 | 60 | 271 | 2.0 | 3.0 | 0.00 | 0.09 | 0.01 | 77 | 1020.7 |
| 20260901185004 | 60 | 271 | 2.0 | 3.0 | 0.00 | 0.09 | 0.01 | 76 | 1020.7 |
| 20260901184005 | 61 | 273 | 2.0 | 3.0 | 0.00 | 0.09 | 0.01 | 75 | 1020.4 |
| 20260901183504 | 61 | 281 | 2.0 | 3.0 | 0.00 | 0.09 | 0.01 | 75 | 1020.4 |
| 20260901183004 | 62 | 282 | 2.0 | 3.0 | 0.00 | 0.09 | 0.01 | 73 | 1020.3 |
| 20260901182504 | 62 | 282 | 2.0 | 2.0 | 0.00 | 0.09 | 0.01 | 73 | 1020.4 |
| 20260901182005 | 62 | 282 | 2.0 | 2.0 | 0.00 | 0.09 | 0.01 | 74 | 1020.5 |
| 20260901181504 | 63 | 282 | 1.0 | 2.0 | 0.00 | 0.09 | 0.01 | 73 | 1020.5 |
| 20260901181004 | 64 | 282 | 1.0 | 2.0 | 0.00 | 0.09 | 0.01 | 71 | 1020.3 |
| 20260901180504 | 64 | 282 | 1.0 | 1.0 | 0.00 | 0.09 | 0.01 | 69 | 1020.3 |
| 20260901180006 | 65 | 282 | 1.0 | 1.0 | 0.00 | 0.09 | 0.01 | 68 | 1020.3 |
| 20260901175504 | 65 | 282 | 0.0 | 1.0 | 0.00 | 0.09 | 0.01 | 67 | 1020.3 |
| 20260901175005 | 66 | 282 | 0.0 | 1.0 | 0.00 | 0.09 | 0.01 | 68 | 1020.3 |
| 20260901174007 | 67 | 282 | 0.0 | 2.0 | 0.00 | 0.09 | 0.01 | 67 | 1020.3 |
| 20260901173504 | 67 | 282 | 0.0 | 2.0 | 0.00 | 0.09 | 0.01 | 66 | 1020.3 |
| 20260901173004 | 67 | 282 | 0.0 | 1.0 | 0.00 | 0.09 | 0.01 | 65 | 1020.3 |
| 20260901172004 | 67 | 282 | 1.0 | 2.0 | 0.00 | 0.09 | 0.01 | 64 | 1020.3 |
| 20260901171504 | 67 | 283 | 1.0 | 1.0 | 0.00 | 0.09 | 0.01 | 66 | 1020.3 |
| 20260901171004 | 68 | 283 | 0.0 | 1.0 | 0.00 | 0.09 | 0.01 | 65 | 1020.4 |
| 20260901170504 | 68 | 283 | 1.0 | 2.0 | 0.00 | 0.09 | 0.01 | 65 | 1020.3 |
| 20260901170004 | 68 | 283 | 1.0 | 2.0 | 0.00 | 0.09 | 0.01 | 66 | 1020.4 |
| 20260901165504 | 68 | 315 | 0.0 | 0.0 | 0.00 | 0.09 | 0.01 | 64 | 1020.3 |
| 20260901165004 | 68 | 315 | 0.0 | 0.0 | 0.00 | 0.09 | 0.01 | 64 | 1020.4 |
| 20260901164004 | 68 | 315 | 0.0 | 0.0 | 0.00 | 0.09 | 0.01 | 64 | 1020.4 |
| 20260901163504 | 68 | 315 | 0.0 | 0.0 | 0.00 | 0.09 | 0.01 | 64 | 1020.4 |
| 20260901163005 | 68 | 315 | 0.0 | 0.0 | 0.00 | 0.09 | 0.01 | 63 | 1020.4 |
| 20260901162506 | 68 | 316 | 1.0 | 3.0 | 0.00 | 0.09 | 0.01 | 63 | 1020.3 |
| 20260901162004 | 68 | 272 | 1.0 | 3.0 | 0.00 | 0.09 | 0.01 | 62 | 1020.3 |
| 20260901161504 | 69 | 281 | 0.0 | 5.0 | 0.00 | 0.09 | 0.01 | 62 | 1020.4 |
| 20260901160504 | 69 | 324 | 1.0 | 3.0 | 0.00 | 0.09 | 0.01 | 60 | 1020.3 |
| 20260901160004 | 69 | 311 | 0.0 | 3.0 | 0.00 | 0.09 | 0.01 | 62 | 1020.3 |
| 20260901155504 | 69 | 275 | 1.0 | 6.0 | 0.00 | 0.10 | 0.01 | 61 | 1020.3 |
| 20260901155005 | 69 | 1 | 1.0 | 3.0 | 0.00 | 0.10 | 0.01 | 62 | 1020.3 |
| 20260901154504 | 69 | 299 | 1.0 | 3.0 | 0.00 | 0.15 | 0.01 | 61 | 1020.3 |
| 20260901154004 | 70 | 259 | 1.0 | 2.0 | 0.00 | 0.22 | 0.01 | 61 | 1020.3 |
| 20260901153504 | 70 | 342 | 0.0 | 2.0 | 0.00 | 0.22 | 0.01 | 59 | 1020.3 |
| 20260901152504 | 70 | 339 | 1.0 | 7.0 | 0.00 | 0.22 | 0.01 | 59 | 1020.3 |
| 20260901152004 | 70 | 354 | 1.0 | 3.0 | 0.00 | 0.22 | 0.01 | 56 | 1020.3 |
| 20260901151504 | 71 | 0 | 1.0 | 3.0 | 0.00 | 0.22 | 0.01 | 58 | 1020.4 |
| 20260901151004 | 70 | 317 | 1.0 | 5.0 | 0.00 | 0.22 | 0.01 | 58 | 1020.4 |
| 20260901150503 | 70 | 356 | 4.0 | 8.0 | 0.00 | 0.22 | 0.01 | 56 | 1020.5 |
| 20260901150004 | 71 | 343 | 3.0 | 8.0 | 0.00 | 0.22 | 0.01 | 56 | 1020.3 |
| 20260901145504 | 71 | 342 | 2.0 | 5.0 | 0.00 | 0.22 | 0.01 | 56 | 1020.3 |
| 20260901145004 | 71 | 35 | 1.0 | 5.0 | 0.00 | 0.22 | 0.01 | 55 | 1020.3 |
| 20260901144504 | 71 | 204 | 1.0 | 5.0 | 0.00 | 0.22 | 0.01 | 55 | 1020.3 |
| 20260901144005 | 71 | 199 | 2.0 | 6.0 | 0.00 | 0.22 | 0.01 | 54 | 1020.3 |
| 20260901143505 | 70 | 197 | 3.0 | 6.0 | 0.00 | 0.22 | 0.01 | 55 | 1020.4 |
| 20260901143004 | 71 | 224 | 2.0 | 8.0 | 0.00 | 0.22 | 0.01 | 53 | 1020.3 |
| 20260901142504 | 72 | 280 | 3.0 | 8.0 | 0.00 | 0.22 | 0.01 | 52 | 1020.4 |
| 20260901142004 | 72 | 224 | 2.0 | 7.0 | 0.00 | 0.22 | 0.01 | 51 | 1020.4 |
| 20260901141004 | 71 | 337 | 5.0 | 8.0 | 0.00 | 0.22 | 0.01 | 53 | 1020.4 |
| 20260901140004 | 70 | 5 | 2.0 | 7.0 | 0.00 | 0.22 | 0.01 | 55 | 1020.5 |
| 20260901135504 | 70 | 283 | 2.0 | 7.0 | 0.00 | 0.22 | 0.01 | 54 | 1020.5 |
| 20260901135004 | 71 | 307 | 2.0 | 10.0 | 0.00 | 0.22 | 0.01 | 53 | 1020.6 |
| 20260901134504 | 72 | 9 | 5.0 | 12.0 | 0.00 | 0.22 | 0.01 | 53 | 1020.6 |
| 20260901134005 | 72 | 2 | 3.0 | 7.0 | 0.00 | 0.22 | 0.01 | 54 | 1020.6 |
| 20260901133504 | 72 | 275 | 2.0 | 12.0 | 0.00 | 0.22 | 0.01 | 56 | 1020.6 |
| 20260901133004 | 72 | 349 | 6.0 | 12.0 | 0.00 | 0.22 | 0.01 | 54 | 1020.6 |
| 20260901132504 | 72 | 258 | 5.0 | 9.0 | 0.00 | 0.22 | 0.01 | 54 | 1020.7 |
| 20260901132004 | 72 | 236 | 5.0 | 9.0 | 0.00 | 0.22 | 0.01 | 53 | 1020.7 |
| 20260901131504 | 71 | 214 | 4.0 | 12.0 | 0.00 | 0.22 | 0.01 | 55 | 1020.7 |
| 20260901131004 | 71 | 248 | 5.0 | 10.0 | 0.00 | 0.22 | 0.01 | 54 | 1020.7 |
| 20260901130505 | 70 | 295 | 3.0 | 9.0 | 0.00 | 0.22 | 0.01 | 58 | 1020.8 |
| 20260901130004 | 70 | 261 | 5.0 | 12.0 | 0.00 | 0.22 | 0.01 | 59 | 1020.8 |
| 20260901125504 | 70 | 338 | 2.0 | 9.0 | 0.00 | 0.22 | 0.01 | 61 | 1020.8 |
| 20260901125004 | 70 | 201 | 4.0 | 10.0 | 0.00 | 0.22 | 0.01 | 58 | 1020.9 |
| 20260901124505 | 71 | 354 | 5.0 | 9.0 | 0.00 | 0.22 | 0.01 | 57 | 1020.8 |
| 20260901124005 | 71 | 193 | 2.0 | 5.0 | 0.00 | 0.22 | 0.01 | 60 | 1020.8 |
| 20260901123504 | 70 | 204 | 4.0 | 8.0 | 0.00 | 0.22 | 0.01 | 60 | 1020.8 |
| 20260901123004 | 71 | 6 | 5.0 | 9.0 | 0.00 | 0.22 | 0.01 | 58 | 1020.8 |
| 20260901122504 | 71 | 310 | 4.0 | 8.0 | 0.00 | 0.22 | 0.01 | 60 | 1020.9 |
| 20260901121504 | 71 | 186 | 1.0 | 7.0 | 0.00 | 0.22 | 0.01 | 63 | 1020.9 |
| 20260901121004 | 70 | 208 | 2.0 | 7.0 | 0.00 | 0.22 | 0.01 | 64 | 1020.9 |
| 20260901115504 | 71 | 316 | 6.0 | 12.0 | 0.00 | 0.22 | 0.01 | 58 | 1021.0 |
| 20260901114504 | 69 | 292 | 3.0 | 9.0 | 0.00 | 0.22 | 0.01 | 62 | 1021.0 |
| 20260901114005 | 69 | 193 | 1.0 | 3.0 | 0.00 | 0.22 | 0.01 | 64 | 1021.1 |
| 20260901113504 | 68 | 223 | 3.0 | 5.0 | 0.00 | 0.22 | 0.01 | 62 | 1021.0 |
| 20260901113004 | 69 | 314 | 3.0 | 8.0 | 0.00 | 0.22 | 0.01 | 60 | 1021.0 |
| 20260901112504 | 70 | 261 | 3.0 | 8.0 | 0.00 | 0.22 | 0.01 | 63 | 1021.0 |
| 20260901112006 | 69 | 339 | 3.0 | 5.0 | 0.00 | 0.22 | 0.01 | 62 | 1020.9 |
| 20260901111004 | 69 | 284 | 6.0 | 12.0 | 0.00 | 0.24 | 0.01 | 64 | 1020.9 |
| 20260901110504 | 69 | 192 | 3.0 | 7.0 | 0.00 | 0.26 | 0.01 | 64 | 1020.9 |
| 20260901105004 | 69 | 270 | 2.0 | 8.0 | 0.00 | 0.26 | 0.01 | 67 | 1021.0 |
| 20260901104504 | 68 | 327 | 5.0 | 10.0 | 0.00 | 0.26 | 0.01 | 66 | 1021.0 |
| 20260901104004 | 68 | 329 | 5.0 | 12.0 | 0.00 | 0.26 | 0.01 | 66 | 1021.0 |
| 20260901103504 | 67 | 276 | 3.0 | 12.0 | 0.00 | 0.26 | 0.01 | 67 | 1021.0 |
| 20260901103004 | 67 | 303 | 6.0 | 10.0 | 0.00 | 0.26 | 0.01 | 67 | 1021.0 |
| 20260901102504 | 67 | 295 | 2.0 | 8.0 | 0.00 | 0.26 | 0.01 | 67 | 1021.0 |
| 20260901102004 | 68 | 8 | 4.0 | 12.0 | 0.00 | 0.26 | 0.01 | 67 | 1021.0 |
| 20260901101504 | 67 | 299 | 6.0 | 9.0 | 0.00 | 0.26 | 0.01 | 67 | 1021.0 |
| 20260901101003 | 67 | 330 | 5.0 | 9.0 | 0.00 | 0.26 | 0.01 | 66 | 1021.1 |
| 20260901100503 | 67 | 337 | 2.0 | 8.0 | 0.00 | 0.26 | 0.01 | 67 | 1021.1 |
| 20260901100004 | 67 | 299 | 5.0 | 9.0 | 0.00 | 0.26 | 0.01 | 67 | 1021.1 |
| 20260901095504 | 68 | 198 | 2.0 | 10.0 | 0.00 | 0.26 | 0.01 | 66 | 1021.1 |
| 20260901094504 | 69 | 328 | 3.0 | 12.0 | 0.00 | 0.26 | 0.01 | 67 | 1021.1 |
| 20260901094005 | 69 | 248 | 4.0 | 12.0 | 0.00 | 0.26 | 0.01 | 69 | 1021.1 |
| 20260901093504 | 68 | 244 | 2.0 | 5.0 | 0.00 | 0.26 | 0.01 | 69 | 1021.1 |
| 20260901093003 | 67 | 211 | 3.0 | 8.0 | 0.00 | 0.26 | 0.01 | 70 | 1021.1 |
| 20260901092004 | 67 | 272 | 2.0 | 5.0 | 0.00 | 0.26 | 0.01 | 71 | 1021.1 |
| 20260901091504 | 66 | 188 | 3.0 | 7.0 | 0.00 | 0.26 | 0.01 | 73 | 1021.1 |
| 20260901091003 | 66 | 312 | 4.0 | 10.0 | 0.00 | 0.26 | 0.01 | 72 | 1021.1 |
| 20260901090504 | 66 | 295 | 3.0 | 10.0 | 0.00 | 0.26 | 0.01 | 73 | 1021.2 |